UAL798 KDEN-KIAD
Flight info
| Callsign | UAL798 |
|---|---|
| Flight time | 2h 31m |
| Altitude | 37000 |
| Route | EMMYS8 ZIRKL PWE SPI J80 VHP APE MGW GIBBZ5 |
| Aircraft | B772/H-SDE2E3FGHIJ5LORVWXY/LB1D1 |
Departure
| Time | 2026-05-03 20:43 |
|---|---|
| Airport | Denver International Airport (KDEN) |
Arrival
| Time | 2026-05-03 23:14 |
|---|---|
| Airport | Washington Dulles International Airport (KIAD) |
| Time | Latitude | Longitude | Altitude | Speed | Heading |
|---|---|---|---|---|---|
| 2026-05-03 20:15 | 39.85810 | -104.67546 | 5388 ft | 0 kts | 0° |
| 2026-05-03 20:30 | 39.85801 | -104.67546 | 5388 ft | 2 kts | 0° |
| 2026-05-03 20:31 | 39.85784 | -104.67547 | 5388 ft | 2 kts | 0° |
| 2026-05-03 20:31 | 39.85769 | -104.67547 | 5388 ft | 2 kts | 0° |
| 2026-05-03 20:31 | 39.85753 | -104.67547 | 5388 ft | 2 kts | 0° |
| 2026-05-03 20:31 | 39.85738 | -104.67548 | 5388 ft | 2 kts | 0° |
| 2026-05-03 20:32 | 39.85726 | -104.67548 | 5388 ft | 0 kts | 0° |
| 2026-05-03 20:32 | 39.85725 | -104.67548 | 5388 ft | 0 kts | 0° |
| 2026-05-03 20:35 | 39.85730 | -104.67550 | 5388 ft | 1 kts | 332° |
| 2026-05-03 20:36 | 39.85733 | -104.67563 | 5388 ft | 2 kts | 260° |
| 2026-05-03 20:36 | 39.85711 | -104.67596 | 5388 ft | 8 kts | 224° |
| 2026-05-03 20:36 | 39.85664 | -104.67654 | 5388 ft | 9 kts | 224° |
| 2026-05-03 20:36 | 39.85618 | -104.67715 | 5388 ft | 9 kts | 227° |
| 2026-05-03 20:37 | 39.85593 | -104.67791 | 5388 ft | 9 kts | 264° |
| 2026-05-03 20:37 | 39.85593 | -104.67879 | 5388 ft | 9 kts | 271° |
| 2026-05-03 20:37 | 39.85595 | -104.67971 | 5388 ft | 9 kts | 271° |
| 2026-05-03 20:37 | 39.85596 | -104.68065 | 5388 ft | 11 kts | 271° |
| 2026-05-03 20:38 | 39.85597 | -104.68177 | 5387 ft | 12 kts | 270° |
| 2026-05-03 20:38 | 39.85598 | -104.68290 | 5384 ft | 9 kts | 270° |
| 2026-05-03 20:38 | 39.85593 | -104.68367 | 5382 ft | 7 kts | 245° |
| 2026-05-03 20:38 | 39.85544 | -104.68399 | 5382 ft | 8 kts | 184° |
| 2026-05-03 20:39 | 39.85475 | -104.68401 | 5382 ft | 11 kts | 180° |
| 2026-05-03 20:39 | 39.85392 | -104.68401 | 5382 ft | 11 kts | 180° |
| 2026-05-03 20:39 | 39.85307 | -104.68402 | 5382 ft | 11 kts | 180° |
| 2026-05-03 20:39 | 39.85241 | -104.68403 | 5382 ft | 7 kts | 180° |
| 2026-05-03 20:40 | 39.85206 | -104.68437 | 5382 ft | 6 kts | 263° |
| 2026-05-03 20:40 | 39.85205 | -104.68503 | 5382 ft | 7 kts | 269° |
| 2026-05-03 20:40 | 39.85205 | -104.68574 | 5382 ft | 8 kts | 269° |
| 2026-05-03 20:40 | 39.85203 | -104.68674 | 5378 ft | 12 kts | 268° |
| 2026-05-03 20:41 | 39.85200 | -104.68818 | 5369 ft | 19 kts | 269° |
| 2026-05-03 20:41 | 39.85197 | -104.69009 | 5364 ft | 21 kts | 268° |
| 2026-05-03 20:41 | 39.85196 | -104.69199 | 5353 ft | 19 kts | 271° |
| 2026-05-03 20:41 | 39.85200 | -104.69377 | 5348 ft | 19 kts | 270° |
| 2026-05-03 20:42 | 39.85202 | -104.69540 | 5348 ft | 13 kts | 271° |
| 2026-05-03 20:42 | 39.85204 | -104.69624 | 5348 ft | 4 kts | 274° |
| 2026-05-03 20:42 | 39.85222 | -104.69653 | 5348 ft | 4 kts | 343° |
| 2026-05-03 20:42 | 39.85289 | -104.69658 | 5348 ft | 18 kts | 359° |
| 2026-05-03 20:43 | 39.85737 | -104.69654 | 5344 ft | 97 kts | 0° |
| 2026-05-03 20:43 | 39.86704 | -104.69642 | 5342 ft | 162 kts | 0° |
| 2026-05-03 20:43 | 39.88118 | -104.69630 | 5492 ft | 201 kts | 357° |
| 2026-05-03 20:43 | 39.89512 | -104.69631 | 6206 ft | 204 kts | 1° |
| 2026-05-03 20:44 | 39.90924 | -104.69259 | 6879 ft | 209 kts | 17° |
| 2026-05-03 20:44 | 39.92307 | -104.68197 | 7170 ft | 235 kts | 40° |
| 2026-05-03 20:44 | 39.93385 | -104.66358 | 7541 ft | 262 kts | 62° |
| 2026-05-03 20:44 | 39.94074 | -104.63934 | 8047 ft | 281 kts | 69° |
| 2026-05-03 20:45 | 39.94729 | -104.61259 | 8625 ft | 297 kts | 78° |
| 2026-05-03 20:45 | 39.94965 | -104.58222 | 9557 ft | 301 kts | 85° |
| 2026-05-03 20:45 | 39.95056 | -104.55298 | 10363 ft | 307 kts | 86° |
| 2026-05-03 20:45 | 39.95140 | -104.52229 | 10871 ft | 326 kts | 86° |
| 2026-05-03 20:46 | 39.95237 | -104.48789 | 11355 ft | 346 kts | 86° |
| 2026-05-03 20:46 | 39.95341 | -104.45077 | 11888 ft | 365 kts | 86° |
| 2026-05-03 20:46 | 39.95391 | -104.41408 | 12374 ft | 383 kts | 91° |
| 2026-05-03 20:46 | 39.94995 | -104.37905 | 12795 ft | 399 kts | 103° |
| 2026-05-03 20:47 | 39.94163 | -104.33919 | 13654 ft | 405 kts | 105° |
| 2026-05-03 20:47 | 39.93365 | -104.30239 | 14550 ft | 407 kts | 105° |
| 2026-05-03 20:47 | 39.92578 | -104.26608 | 15350 ft | 411 kts | 105° |
| 2026-05-03 20:47 | 39.91776 | -104.22907 | 16065 ft | 416 kts | 105° |
| 2026-05-03 20:48 | 39.91126 | -104.19128 | 16751 ft | 422 kts | 100° |
| 2026-05-03 20:48 | 39.90578 | -104.15228 | 17505 ft | 426 kts | 100° |
| 2026-05-03 20:48 | 39.90044 | -104.11398 | 18167 ft | 430 kts | 100° |
| 2026-05-03 20:48 | 39.89499 | -104.07510 | 18772 ft | 436 kts | 100° |
| 2026-05-03 20:49 | 39.88940 | -104.03530 | 19320 ft | 443 kts | 100° |
| 2026-05-03 20:49 | 39.88385 | -103.99595 | 19842 ft | 449 kts | 100° |
| 2026-05-03 20:49 | 39.87810 | -103.95541 | 20387 ft | 455 kts | 100° |
| 2026-05-03 20:49 | 39.87368 | -103.91491 | 20906 ft | 459 kts | 93° |
| 2026-05-03 20:50 | 39.87402 | -103.87329 | 21425 ft | 464 kts | 84° |
| 2026-05-03 20:50 | 39.87680 | -103.83141 | 21938 ft | 469 kts | 83° |
| 2026-05-03 20:50 | 39.87986 | -103.78853 | 22475 ft | 474 kts | 83° |
| 2026-05-03 20:50 | 39.88289 | -103.74579 | 22955 ft | 480 kts | 83° |
| 2026-05-03 20:51 | 39.88644 | -103.70286 | 23036 ft | 483 kts | 80° |
| 2026-05-03 20:51 | 39.89157 | -103.65942 | 23039 ft | 481 kts | 79° |
| 2026-05-03 20:51 | 39.89675 | -103.61645 | 23030 ft | 482 kts | 79° |
| 2026-05-03 20:51 | 39.90191 | -103.57312 | 23340 ft | 491 kts | 79° |
| 2026-05-03 20:52 | 39.90708 | -103.52897 | 24114 ft | 489 kts | 79° |
| 2026-05-03 20:52 | 39.91209 | -103.48576 | 24836 ft | 488 kts | 79° |
| 2026-05-03 20:52 | 39.91719 | -103.44144 | 25262 ft | 493 kts | 79° |
| 2026-05-03 20:52 | 39.92222 | -103.39751 | 25613 ft | 499 kts | 79° |
| 2026-05-03 20:53 | 39.92741 | -103.35172 | 26105 ft | 502 kts | 79° |
| 2026-05-03 20:53 | 39.93288 | -103.30316 | 26659 ft | 505 kts | 80° |
| 2026-05-03 20:53 | 39.93845 | -103.25352 | 27224 ft | 507 kts | 80° |
| 2026-05-03 20:53 | 39.94394 | -103.20428 | 28202 ft | 499 kts | 80° |
| 2026-05-03 20:54 | 39.94936 | -103.15538 | 29083 ft | 493 kts | 80° |
| 2026-05-03 20:54 | 39.95984 | -103.06042 | 29872 ft | 503 kts | 80° |
| 2026-05-03 20:54 | 39.96519 | -103.01172 | 30283 ft | 507 kts | 80° |
| 2026-05-03 20:55 | 39.97053 | -102.96280 | 30700 ft | 511 kts | 80° |
| 2026-05-03 20:55 | 39.97590 | -102.91344 | 31164 ft | 514 kts | 80° |
| 2026-05-03 20:55 | 39.98121 | -102.86429 | 31591 ft | 518 kts | 80° |
| 2026-05-03 20:55 | 39.98654 | -102.81491 | 31918 ft | 523 kts | 80° |
| 2026-05-03 20:56 | 39.99203 | -102.76376 | 32352 ft | 527 kts | 80° |
| 2026-05-03 20:56 | 39.99716 | -102.71574 | 32904 ft | 526 kts | 80° |
| 2026-05-03 20:56 | 40.00223 | -102.66805 | 33576 ft | 523 kts | 79° |
| 2026-05-03 20:56 | 40.00743 | -102.61893 | 34190 ft | 521 kts | 80° |
| 2026-05-03 20:57 | 40.01239 | -102.57198 | 34636 ft | 521 kts | 79° |
| 2026-05-03 20:57 | 40.01740 | -102.52430 | 35090 ft | 521 kts | 80° |
| 2026-05-03 20:57 | 40.02249 | -102.47570 | 35566 ft | 520 kts | 80° |
| 2026-05-03 20:57 | 40.02760 | -102.42676 | 36027 ft | 519 kts | 79° |
| 2026-05-03 20:58 | 40.03263 | -102.37826 | 36367 ft | 520 kts | 79° |
| 2026-05-03 20:58 | 40.03771 | -102.32918 | 36746 ft | 521 kts | 80° |
| 2026-05-03 20:58 | 40.04288 | -102.27906 | 37006 ft | 524 kts | 80° |
| 2026-05-03 20:58 | 40.04790 | -102.23013 | 36989 ft | 525 kts | 81° |
| 2026-05-03 20:59 | 40.05775 | -102.13335 | 36986 ft | 519 kts | 80° |
| 2026-05-03 20:59 | 40.06797 | -102.03224 | 36983 ft | 522 kts | 80° |
| 2026-05-03 21:00 | 40.07645 | -101.94755 | 36982 ft | 521 kts | 80° |
| 2026-05-03 21:00 | 40.08759 | -101.83543 | 36978 ft | 521 kts | 80° |
| 2026-05-03 21:01 | 40.09695 | -101.74037 | 36976 ft | 522 kts | 80° |
| 2026-05-03 21:01 | 40.10657 | -101.64168 | 36979 ft | 522 kts | 80° |
| 2026-05-03 21:02 | 40.11569 | -101.54735 | 36979 ft | 522 kts | 80° |
| 2026-05-03 21:02 | 40.12482 | -101.45208 | 36976 ft | 523 kts | 80° |
| 2026-05-03 21:03 | 40.13292 | -101.35488 | 36984 ft | 525 kts | 84° |
| 2026-05-03 21:03 | 40.13644 | -101.25857 | 36961 ft | 525 kts | 86° |
| 2026-05-03 21:04 | 40.13975 | -101.16089 | 36958 ft | 526 kts | 85° |
| 2026-05-03 21:04 | 40.14313 | -101.05867 | 36958 ft | 526 kts | 86° |
| 2026-05-03 21:05 | 40.14640 | -100.95729 | 36955 ft | 527 kts | 85° |
| 2026-05-03 21:05 | 40.14958 | -100.85583 | 36949 ft | 527 kts | 85° |
| 2026-05-03 21:06 | 40.15260 | -100.75687 | 36952 ft | 526 kts | 85° |
| 2026-05-03 21:06 | 40.15554 | -100.65747 | 36961 ft | 528 kts | 85° |
| 2026-05-03 21:07 | 40.15861 | -100.55082 | 36959 ft | 528 kts | 85° |
| 2026-05-03 21:07 | 40.16159 | -100.44356 | 36949 ft | 528 kts | 85° |
| 2026-05-03 21:08 | 40.16426 | -100.34443 | 36950 ft | 528 kts | 86° |
| 2026-05-03 21:08 | 40.16689 | -100.24373 | 36924 ft | 528 kts | 86° |
| 2026-05-03 21:09 | 40.16937 | -100.14537 | 36931 ft | 528 kts | 86° |
| 2026-05-03 21:09 | 40.17188 | -100.04239 | 36926 ft | 530 kts | 86° |
| 2026-05-03 21:10 | 40.17434 | -99.93735 | 36926 ft | 528 kts | 85° |
| 2026-05-03 21:10 | 40.17658 | -99.83826 | 36927 ft | 529 kts | 85° |
| 2026-05-03 21:11 | 40.17875 | -99.73827 | 36929 ft | 528 kts | 85° |
| 2026-05-03 21:11 | 40.18081 | -99.63951 | 36933 ft | 530 kts | 85° |
| 2026-05-03 21:12 | 40.18278 | -99.54095 | 36934 ft | 530 kts | 85° |
| 2026-05-03 21:12 | 40.18478 | -99.43676 | 36941 ft | 529 kts | 85° |
| 2026-05-03 21:13 | 40.18660 | -99.33667 | 36936 ft | 530 kts | 86° |
| 2026-05-03 21:13 | 40.18837 | -99.23512 | 36930 ft | 531 kts | 86° |
| 2026-05-03 21:14 | 40.19013 | -99.12872 | 36932 ft | 528 kts | 86° |
| 2026-05-03 21:14 | 40.19180 | -99.02103 | 36940 ft | 531 kts | 86° |
| 2026-05-03 21:15 | 40.19336 | -98.91485 | 36934 ft | 530 kts | 86° |
| 2026-05-03 21:15 | 40.19479 | -98.81058 | 36935 ft | 531 kts | 86° |
| 2026-05-03 21:16 | 40.19615 | -98.70495 | 36936 ft | 532 kts | 85° |
| 2026-05-03 21:16 | 40.19743 | -98.59783 | 36937 ft | 531 kts | 85° |
| 2026-05-03 21:17 | 40.19838 | -98.51206 | 36934 ft | 531 kts | 85° |
| 2026-05-03 21:17 | 40.19958 | -98.39420 | 36936 ft | 532 kts | 85° |
| 2026-05-03 21:18 | 40.20056 | -98.28885 | 36921 ft | 532 kts | 86° |
| 2026-05-03 21:18 | 40.20140 | -98.18835 | 36918 ft | 532 kts | 86° |
| 2026-05-03 21:19 | 40.20218 | -98.08497 | 36918 ft | 534 kts | 86° |
| 2026-05-03 21:19 | 40.20289 | -97.97751 | 36920 ft | 533 kts | 86° |
| 2026-05-03 21:20 | 40.20350 | -97.86913 | 36921 ft | 533 kts | 86° |
| 2026-05-03 21:20 | 40.20401 | -97.76219 | 36926 ft | 534 kts | 86° |
| 2026-05-03 21:21 | 40.20442 | -97.65339 | 36941 ft | 533 kts | 86° |
| 2026-05-03 21:21 | 40.20473 | -97.54452 | 36943 ft | 534 kts | 86° |
| 2026-05-03 21:22 | 40.20494 | -97.43734 | 36936 ft | 532 kts | 86° |
| 2026-05-03 21:22 | 40.20505 | -97.33115 | 36920 ft | 533 kts | 86° |
| 2026-05-03 21:23 | 40.20506 | -97.22728 | 36911 ft | 535 kts | 86° |
| 2026-05-03 21:23 | 40.20497 | -97.12076 | 36913 ft | 533 kts | 86° |
| 2026-05-03 21:24 | 40.20480 | -97.01697 | 36914 ft | 533 kts | 86° |
| 2026-05-03 21:24 | 40.20455 | -96.91906 | 36916 ft | 533 kts | 86° |
| 2026-05-03 21:25 | 40.20419 | -96.81238 | 36922 ft | 534 kts | 86° |
| 2026-05-03 21:25 | 40.20371 | -96.70462 | 36926 ft | 533 kts | 86° |
| 2026-05-03 21:26 | 40.20315 | -96.59761 | 36923 ft | 535 kts | 86° |
| 2026-05-03 21:26 | 40.20247 | -96.48849 | 36922 ft | 534 kts | 86° |
| 2026-05-03 21:27 | 40.20169 | -96.38002 | 36921 ft | 534 kts | 86° |
| 2026-05-03 21:27 | 40.20083 | -96.27225 | 36904 ft | 534 kts | 86° |
| 2026-05-03 21:28 | 40.19944 | -96.16299 | 36905 ft | 537 kts | 88° |
| 2026-05-03 21:28 | 40.19627 | -96.05409 | 36901 ft | 535 kts | 88° |
| 2026-05-03 21:29 | 40.19304 | -95.94530 | 36902 ft | 535 kts | 88° |
| 2026-05-03 21:29 | 40.18983 | -95.83888 | 36905 ft | 537 kts | 88° |
| 2026-05-03 21:30 | 40.18648 | -95.73054 | 36913 ft | 536 kts | 88° |
| 2026-05-03 21:30 | 40.18312 | -95.62409 | 36913 ft | 536 kts | 88° |
| 2026-05-03 21:31 | 40.17986 | -95.52382 | 36913 ft | 535 kts | 88° |
| 2026-05-03 21:31 | 40.17662 | -95.42628 | 36912 ft | 537 kts | 88° |
| 2026-05-03 21:32 | 40.17326 | -95.32783 | 36894 ft | 536 kts | 88° |
| 2026-05-03 21:32 | 40.16986 | -95.23053 | 36893 ft | 537 kts | 88° |
| 2026-05-03 21:33 | 40.16611 | -95.12601 | 36889 ft | 536 kts | 88° |
| 2026-05-03 21:33 | 40.16227 | -95.02141 | 36894 ft | 538 kts | 88° |
| 2026-05-03 21:34 | 40.15840 | -94.91849 | 36892 ft | 537 kts | 88° |
| 2026-05-03 21:34 | 40.15455 | -94.81850 | 36895 ft | 536 kts | 88° |
| 2026-05-03 21:35 | 40.15050 | -94.71548 | 36897 ft | 536 kts | 88° |
| 2026-05-03 21:35 | 40.14630 | -94.61115 | 36899 ft | 537 kts | 89° |
| 2026-05-03 21:36 | 40.14199 | -94.50653 | 36895 ft | 536 kts | 88° |
| 2026-05-03 21:36 | 40.13771 | -94.40493 | 36898 ft | 535 kts | 88° |
| 2026-05-03 21:37 | 40.13340 | -94.30416 | 36879 ft | 537 kts | 89° |
| 2026-05-03 21:37 | 40.12901 | -94.20404 | 36886 ft | 535 kts | 89° |
| 2026-05-03 21:38 | 40.12443 | -94.10169 | 36889 ft | 536 kts | 89° |
| 2026-05-03 21:38 | 40.11989 | -94.00185 | 36889 ft | 536 kts | 89° |
| 2026-05-03 21:39 | 40.11515 | -93.89990 | 36892 ft | 535 kts | 89° |
| 2026-05-03 21:39 | 40.11030 | -93.79731 | 36890 ft | 535 kts | 89° |
| 2026-05-03 21:40 | 40.10544 | -93.69637 | 36896 ft | 536 kts | 89° |
| 2026-05-03 21:40 | 40.10042 | -93.59425 | 36895 ft | 534 kts | 89° |
| 2026-05-03 21:41 | 40.09538 | -93.49326 | 36896 ft | 535 kts | 89° |
| 2026-05-03 21:41 | 40.09016 | -93.39059 | 36892 ft | 534 kts | 89° |
| 2026-05-03 21:42 | 40.08493 | -93.28934 | 36879 ft | 534 kts | 90° |
| 2026-05-03 21:42 | 40.07951 | -93.18639 | 36890 ft | 535 kts | 90° |
| 2026-05-03 21:43 | 40.07390 | -93.08150 | 36885 ft | 534 kts | 90° |
| 2026-05-03 21:43 | 40.06832 | -92.97902 | 36884 ft | 535 kts | 90° |
| 2026-05-03 21:44 | 40.06252 | -92.87412 | 36892 ft | 534 kts | 90° |
| 2026-05-03 21:44 | 40.05645 | -92.76614 | 36900 ft | 535 kts | 90° |
| 2026-05-03 21:45 | 40.05031 | -92.65882 | 36902 ft | 534 kts | 89° |
| 2026-05-03 21:45 | 40.04415 | -92.55276 | 36907 ft | 534 kts | 90° |
| 2026-05-03 21:46 | 40.03795 | -92.44772 | 36913 ft | 534 kts | 90° |
| 2026-05-03 21:46 | 40.03179 | -92.34499 | 36908 ft | 533 kts | 90° |
| 2026-05-03 21:47 | 40.02536 | -92.23911 | 36886 ft | 535 kts | 90° |
| 2026-05-03 21:47 | 40.01888 | -92.13431 | 36881 ft | 533 kts | 90° |
| 2026-05-03 21:48 | 40.01231 | -92.02946 | 36884 ft | 534 kts | 90° |
| 2026-05-03 21:48 | 40.00553 | -91.92269 | 36890 ft | 535 kts | 90° |
| 2026-05-03 21:49 | 39.99887 | -91.81947 | 36892 ft | 533 kts | 90° |
| 2026-05-03 21:49 | 39.99227 | -91.71848 | 36890 ft | 534 kts | 90° |
| 2026-05-03 21:50 | 39.98580 | -91.62090 | 36907 ft | 533 kts | 90° |
| 2026-05-03 21:50 | 39.97926 | -91.52339 | 36890 ft | 533 kts | 90° |
| 2026-05-03 21:51 | 39.97267 | -91.42638 | 36904 ft | 533 kts | 91° |
| 2026-05-03 21:51 | 39.96603 | -91.32993 | 36899 ft | 532 kts | 91° |
| 2026-05-03 21:52 | 39.95934 | -91.23378 | 36892 ft | 534 kts | 92° |
| 2026-05-03 21:52 | 39.95255 | -91.13742 | 36912 ft | 533 kts | 91° |
| 2026-05-03 21:53 | 39.94550 | -91.03873 | 36923 ft | 532 kts | 91° |
| 2026-05-03 21:53 | 39.93837 | -90.93992 | 36891 ft | 532 kts | 92° |
| 2026-05-03 21:54 | 39.93108 | -90.84006 | 36908 ft | 534 kts | 92° |
| 2026-05-03 21:54 | 39.92377 | -90.74124 | 36907 ft | 532 kts | 92° |
| 2026-05-03 21:55 | 39.91639 | -90.64255 | 36902 ft | 534 kts | 92° |
| 2026-05-03 21:55 | 39.90895 | -90.54427 | 36926 ft | 532 kts | 92° |
| 2026-05-03 21:56 | 39.90151 | -90.44695 | 36913 ft | 532 kts | 92° |
| 2026-05-03 21:56 | 39.89400 | -90.34989 | 36896 ft | 532 kts | 92° |
| 2026-05-03 21:57 | 39.88653 | -90.25433 | 36882 ft | 533 kts | 93° |
| 2026-05-03 21:57 | 39.87883 | -90.15686 | 36907 ft | 535 kts | 93° |
| 2026-05-03 21:58 | 39.87115 | -90.06082 | 36906 ft | 532 kts | 92° |
| 2026-05-03 21:58 | 39.86338 | -89.96465 | 36903 ft | 533 kts | 92° |
| 2026-05-03 21:59 | 39.85551 | -89.86809 | 36900 ft | 534 kts | 92° |
| 2026-05-03 21:59 | 39.84753 | -89.77136 | 36899 ft | 532 kts | 92° |
| 2026-05-03 22:00 | 39.83947 | -89.67452 | 36903 ft | 534 kts | 93° |
| 2026-05-03 22:00 | 39.83801 | -89.57687 | 36921 ft | 529 kts | 84° |
| 2026-05-03 22:01 | 39.83960 | -89.47742 | 36909 ft | 529 kts | 84° |
| 2026-05-03 22:01 | 39.84069 | -89.37378 | 36913 ft | 530 kts | 85° |
| 2026-05-03 22:02 | 39.84139 | -89.27290 | 36928 ft | 528 kts | 86° |
| 2026-05-03 22:02 | 39.84186 | -89.16909 | 36915 ft | 532 kts | 86° |
| 2026-05-03 22:03 | 39.84215 | -89.06394 | 36920 ft | 529 kts | 86° |
| 2026-05-03 22:03 | 39.84231 | -88.96231 | 36900 ft | 529 kts | 86° |
| 2026-05-03 22:04 | 39.84236 | -88.86475 | 36915 ft | 533 kts | 86° |
| 2026-05-03 22:04 | 39.84230 | -88.76801 | 36925 ft | 529 kts | 86° |
| 2026-05-03 22:05 | 39.84217 | -88.67109 | 36916 ft | 531 kts | 86° |
| 2026-05-03 22:05 | 39.84195 | -88.57482 | 36940 ft | 531 kts | 86° |
| 2026-05-03 22:06 | 39.84163 | -88.47568 | 36946 ft | 531 kts | 86° |
| 2026-05-03 22:06 | 39.84118 | -88.37548 | 36934 ft | 531 kts | 86° |
| 2026-05-03 22:07 | 39.84066 | -88.27826 | 36935 ft | 531 kts | 87° |
| 2026-05-03 22:07 | 39.84007 | -88.17794 | 36931 ft | 532 kts | 88° |
| 2026-05-03 22:08 | 39.83939 | -88.07656 | 36933 ft | 532 kts | 87° |
| 2026-05-03 22:08 | 39.83862 | -87.97345 | 36941 ft | 533 kts | 88° |
| 2026-05-03 22:09 | 39.83774 | -87.86938 | 36940 ft | 533 kts | 88° |
| 2026-05-03 22:10 | 39.83626 | -87.71387 | 36957 ft | 533 kts | 88° |
| 2026-05-03 22:10 | 39.83517 | -87.61121 | 36958 ft | 533 kts | 87° |
| 2026-05-03 22:11 | 39.83400 | -87.51022 | 36966 ft | 533 kts | 88° |
| 2026-05-03 22:11 | 39.83272 | -87.40715 | 36957 ft | 533 kts | 87° |
| 2026-05-03 22:12 | 39.83141 | -87.30774 | 36943 ft | 534 kts | 88° |
| 2026-05-03 22:12 | 39.83001 | -87.20927 | 36949 ft | 534 kts | 88° |
| 2026-05-03 22:13 | 39.82855 | -87.11137 | 36970 ft | 536 kts | 88° |
| 2026-05-03 22:13 | 39.82695 | -87.01054 | 36965 ft | 534 kts | 89° |
| 2026-05-03 22:14 | 39.82528 | -86.91051 | 36992 ft | 535 kts | 88° |
| 2026-05-03 22:14 | 39.82356 | -86.81217 | 36969 ft | 534 kts | 88° |
| 2026-05-03 22:15 | 39.82175 | -86.71351 | 36967 ft | 536 kts | 89° |
| 2026-05-03 22:15 | 39.81987 | -86.61617 | 36997 ft | 533 kts | 89° |
| 2026-05-03 22:16 | 39.81791 | -86.51813 | 36993 ft | 536 kts | 89° |
| 2026-05-03 22:16 | 39.81587 | -86.42065 | 37011 ft | 536 kts | 89° |
| 2026-05-03 22:17 | 39.81921 | -86.32040 | 37005 ft | 531 kts | 79° |
| 2026-05-03 22:17 | 39.82940 | -86.22452 | 36991 ft | 532 kts | 78° |
| 2026-05-03 22:18 | 39.83951 | -86.12880 | 36990 ft | 530 kts | 78° |
| 2026-05-03 22:18 | 39.84942 | -86.03363 | 36998 ft | 532 kts | 78° |
| 2026-05-03 22:19 | 39.85969 | -85.93378 | 36998 ft | 533 kts | 79° |
| 2026-05-03 22:19 | 39.86991 | -85.83321 | 37014 ft | 531 kts | 79° |
| 2026-05-03 22:20 | 39.87955 | -85.73751 | 36987 ft | 533 kts | 78° |
| 2026-05-03 22:20 | 39.88914 | -85.64137 | 37003 ft | 532 kts | 78° |
| 2026-05-03 22:21 | 39.89865 | -85.54520 | 36988 ft | 532 kts | 79° |
| 2026-05-03 22:21 | 39.90812 | -85.44862 | 37005 ft | 533 kts | 79° |
| 2026-05-03 22:22 | 39.91739 | -85.35323 | 37026 ft | 531 kts | 79° |
| 2026-05-03 22:22 | 39.92659 | -85.25774 | 37004 ft | 533 kts | 79° |
| 2026-05-03 22:23 | 39.93572 | -85.16209 | 37011 ft | 533 kts | 79° |
| 2026-05-03 22:23 | 39.94476 | -85.06647 | 37006 ft | 532 kts | 79° |
| 2026-05-03 22:24 | 39.95368 | -84.97131 | 37002 ft | 532 kts | 79° |
| 2026-05-03 22:24 | 39.96256 | -84.87571 | 37018 ft | 531 kts | 79° |
| 2026-05-03 22:25 | 39.97142 | -84.77950 | 37005 ft | 534 kts | 79° |
| 2026-05-03 22:25 | 39.98013 | -84.68400 | 37010 ft | 532 kts | 79° |
| 2026-05-03 22:26 | 39.98881 | -84.58797 | 37017 ft | 532 kts | 79° |
| 2026-05-03 22:26 | 39.99740 | -84.49202 | 37029 ft | 533 kts | 80° |
| 2026-05-03 22:27 | 40.00586 | -84.39655 | 37034 ft | 532 kts | 79° |
| 2026-05-03 22:27 | 40.01426 | -84.30099 | 37018 ft | 532 kts | 81° |
| 2026-05-03 22:28 | 40.02261 | -84.20498 | 37243 ft | 533 kts | 81° |
| 2026-05-03 22:28 | 40.02687 | -84.15565 | 36899 ft | 533 kts | 81° |
| 2026-05-03 22:28 | 40.03096 | -84.10800 | 37009 ft | 530 kts | 81° |
| 2026-05-03 22:29 | 40.03922 | -84.01125 | 37023 ft | 535 kts | 81° |
| 2026-05-03 22:29 | 40.04335 | -83.96247 | 37181 ft | 534 kts | 81° |
| 2026-05-03 22:29 | 40.04743 | -83.91397 | 37061 ft | 532 kts | 81° |
| 2026-05-03 22:30 | 40.05539 | -83.81857 | 37054 ft | 531 kts | 81° |
| 2026-05-03 22:30 | 40.06337 | -83.72222 | 37018 ft | 532 kts | 81° |
| 2026-05-03 22:31 | 40.07122 | -83.62633 | 37009 ft | 530 kts | 81° |
| 2026-05-03 22:31 | 40.07898 | -83.53064 | 37017 ft | 530 kts | 81° |
| 2026-05-03 22:32 | 40.08668 | -83.43465 | 37044 ft | 532 kts | 81° |
| 2026-05-03 22:32 | 40.09429 | -83.33875 | 37027 ft | 532 kts | 82° |
| 2026-05-03 22:33 | 40.10181 | -83.24298 | 37029 ft | 530 kts | 82° |
| 2026-05-03 22:33 | 40.10928 | -83.14693 | 37028 ft | 533 kts | 82° |
| 2026-05-03 22:34 | 40.11664 | -83.05107 | 37042 ft | 532 kts | 82° |
| 2026-05-03 22:34 | 40.12393 | -82.95509 | 37022 ft | 530 kts | 81° |
| 2026-05-03 22:35 | 40.13117 | -82.85873 | 37037 ft | 529 kts | 81° |
| 2026-05-03 22:35 | 40.13838 | -82.76174 | 37030 ft | 532 kts | 82° |
| 2026-05-03 22:36 | 40.14548 | -82.66512 | 37036 ft | 530 kts | 82° |
| 2026-05-03 22:36 | 40.14274 | -82.56337 | 37024 ft | 534 kts | 100° |
| 2026-05-03 22:37 | 40.12456 | -82.46504 | 37027 ft | 536 kts | 104° |
| 2026-05-03 22:37 | 40.10535 | -82.36911 | 37036 ft | 536 kts | 104° |
| 2026-05-03 22:38 | 40.08595 | -82.27388 | 37032 ft | 535 kts | 105° |
| 2026-05-03 22:38 | 40.06622 | -82.17818 | 37022 ft | 536 kts | 105° |
| 2026-05-03 22:39 | 40.04602 | -82.08100 | 37025 ft | 536 kts | 105° |
| 2026-05-03 22:39 | 40.02576 | -81.98422 | 37036 ft | 538 kts | 105° |
| 2026-05-03 22:40 | 40.00510 | -81.88607 | 37034 ft | 537 kts | 105° |
| 2026-05-03 22:40 | 39.98381 | -81.78547 | 37048 ft | 536 kts | 105° |
| 2026-05-03 22:41 | 39.96265 | -81.68594 | 37044 ft | 537 kts | 106° |
| 2026-05-03 22:41 | 39.94115 | -81.58535 | 37042 ft | 537 kts | 106° |
| 2026-05-03 22:42 | 39.91923 | -81.48328 | 37039 ft | 538 kts | 106° |
| 2026-05-03 22:42 | 39.89698 | -81.38018 | 37048 ft | 538 kts | 105° |
| 2026-05-03 22:43 | 39.87538 | -81.28051 | 37014 ft | 538 kts | 107° |
| 2026-05-03 22:43 | 39.85340 | -81.17959 | 36998 ft | 537 kts | 106° |
| 2026-05-03 22:44 | 39.83079 | -81.07625 | 37010 ft | 539 kts | 106° |
| 2026-05-03 22:44 | 39.80850 | -80.97484 | 37014 ft | 537 kts | 106° |
| 2026-05-03 22:45 | 39.78611 | -80.87347 | 37018 ft | 538 kts | 107° |
| 2026-05-03 22:45 | 39.76318 | -80.77011 | 37006 ft | 537 kts | 107° |
| 2026-05-03 22:46 | 39.74021 | -80.66708 | 37010 ft | 537 kts | 107° |
| 2026-05-03 22:46 | 39.71753 | -80.56581 | 37025 ft | 536 kts | 107° |
| 2026-05-03 22:46 | 39.70606 | -80.51476 | 36752 ft | 532 kts | 107° |
| 2026-05-03 22:47 | 39.69480 | -80.46473 | 35960 ft | 541 kts | 107° |
| 2026-05-03 22:47 | 39.68325 | -80.41359 | 35213 ft | 548 kts | 106° |
| 2026-05-03 22:47 | 39.67206 | -80.36415 | 34571 ft | 553 kts | 106° |
| 2026-05-03 22:47 | 39.66088 | -80.31481 | 34015 ft | 552 kts | 107° |
| 2026-05-03 22:48 | 39.64926 | -80.26368 | 33468 ft | 548 kts | 106° |
| 2026-05-03 22:48 | 39.63824 | -80.21526 | 32954 ft | 542 kts | 107° |
| 2026-05-03 22:48 | 39.62737 | -80.16765 | 32379 ft | 535 kts | 106° |
| 2026-05-03 22:48 | 39.61682 | -80.12150 | 31893 ft | 528 kts | 106° |
| 2026-05-03 22:49 | 39.60603 | -80.07443 | 31363 ft | 520 kts | 106° |
| 2026-05-03 22:49 | 39.59574 | -80.02960 | 30933 ft | 512 kts | 105° |
| 2026-05-03 22:49 | 39.58544 | -79.98487 | 30644 ft | 507 kts | 106° |
| 2026-05-03 22:49 | 39.57525 | -79.94064 | 30372 ft | 509 kts | 106° |
| 2026-05-03 22:50 | 39.56488 | -79.89571 | 30090 ft | 509 kts | 106° |
| 2026-05-03 22:50 | 39.55470 | -79.85170 | 29836 ft | 506 kts | 105° |
| 2026-05-03 22:50 | 39.54596 | -79.80653 | 29557 ft | 501 kts | 101° |
| 2026-05-03 22:50 | 39.53818 | -79.76192 | 29292 ft | 498 kts | 101° |
| 2026-05-03 22:51 | 39.53057 | -79.71837 | 29023 ft | 496 kts | 101° |
| 2026-05-03 22:51 | 39.52267 | -79.67360 | 28628 ft | 490 kts | 101° |
| 2026-05-03 22:51 | 39.51423 | -79.62614 | 28078 ft | 487 kts | 101° |
| 2026-05-03 22:51 | 39.50583 | -79.57927 | 27545 ft | 484 kts | 101° |
| 2026-05-03 22:52 | 39.49738 | -79.53236 | 26998 ft | 480 kts | 101° |
| 2026-05-03 22:52 | 39.48938 | -79.48778 | 26462 ft | 477 kts | 101° |
| 2026-05-03 22:52 | 39.48176 | -79.44519 | 25953 ft | 475 kts | 101° |
| 2026-05-03 22:52 | 39.47392 | -79.40152 | 25402 ft | 473 kts | 101° |
| 2026-05-03 22:53 | 39.46530 | -79.35431 | 24828 ft | 469 kts | 101° |
| 2026-05-03 22:53 | 39.45690 | -79.30863 | 24254 ft | 466 kts | 102° |
| 2026-05-03 22:53 | 39.44858 | -79.26350 | 23706 ft | 461 kts | 102° |
| 2026-05-03 22:53 | 39.44034 | -79.21891 | 23163 ft | 454 kts | 102° |
| 2026-05-03 22:54 | 39.43240 | -79.17602 | 22641 ft | 446 kts | 102° |
| 2026-05-03 22:54 | 39.42503 | -79.13430 | 22150 ft | 441 kts | 101° |
| 2026-05-03 22:54 | 39.41798 | -79.09377 | 21663 ft | 437 kts | 101° |
| 2026-05-03 22:54 | 39.41095 | -79.05356 | 21181 ft | 433 kts | 101° |
| 2026-05-03 22:55 | 39.40410 | -79.01448 | 20707 ft | 429 kts | 101° |
| 2026-05-03 22:55 | 39.39673 | -78.97254 | 20209 ft | 425 kts | 102° |
| 2026-05-03 22:55 | 39.38963 | -78.93230 | 19720 ft | 421 kts | 102° |
| 2026-05-03 22:55 | 39.38217 | -78.89038 | 19206 ft | 417 kts | 102° |
| 2026-05-03 22:56 | 39.37515 | -78.85118 | 18738 ft | 413 kts | 102° |
| 2026-05-03 22:56 | 39.36795 | -78.81107 | 18258 ft | 409 kts | 102° |
| 2026-05-03 22:56 | 39.36079 | -78.77130 | 17764 ft | 405 kts | 102° |
| 2026-05-03 22:56 | 39.35346 | -78.73067 | 17256 ft | 401 kts | 102° |
| 2026-05-03 22:57 | 39.34648 | -78.69205 | 16789 ft | 397 kts | 101° |
| 2026-05-03 22:57 | 39.33961 | -78.65411 | 16318 ft | 393 kts | 102° |
| 2026-05-03 22:57 | 39.33296 | -78.61748 | 15871 ft | 388 kts | 102° |
| 2026-05-03 22:57 | 39.32648 | -78.58181 | 15440 ft | 384 kts | 101° |
| 2026-05-03 22:58 | 39.31992 | -78.54563 | 15005 ft | 379 kts | 101° |
| 2026-05-03 22:58 | 39.31343 | -78.50949 | 14568 ft | 375 kts | 101° |
| 2026-05-03 22:58 | 39.30691 | -78.47324 | 14128 ft | 371 kts | 101° |
| 2026-05-03 22:58 | 39.30061 | -78.43829 | 13695 ft | 366 kts | 101° |
| 2026-05-03 22:59 | 39.29466 | -78.40532 | 13308 ft | 363 kts | 101° |
| 2026-05-03 22:59 | 39.28674 | -78.37153 | 12888 ft | 362 kts | 113° |
| 2026-05-03 22:59 | 39.27356 | -78.34221 | 12478 ft | 359 kts | 123° |
| 2026-05-03 22:59 | 39.25834 | -78.31276 | 12056 ft | 354 kts | 124° |
| 2026-05-03 23:00 | 39.24405 | -78.28547 | 11656 ft | 350 kts | 124° |
| 2026-05-03 23:00 | 39.22993 | -78.25855 | 11264 ft | 342 kts | 124° |
| 2026-05-03 23:00 | 39.21588 | -78.23181 | 10877 ft | 327 kts | 124° |
| 2026-05-03 23:00 | 39.20267 | -78.20670 | 10672 ft | 314 kts | 124° |
| 2026-05-03 23:01 | 39.18957 | -78.18182 | 10426 ft | 311 kts | 124° |
| 2026-05-03 23:01 | 39.17671 | -78.15741 | 10170 ft | 306 kts | 124° |
| 2026-05-03 23:01 | 39.16402 | -78.13333 | 9921 ft | 301 kts | 124° |
| 2026-05-03 23:01 | 39.15193 | -78.11041 | 9749 ft | 293 kts | 124° |
| 2026-05-03 23:02 | 39.13955 | -78.08693 | 9592 ft | 294 kts | 124° |
| 2026-05-03 23:02 | 39.12735 | -78.06381 | 9420 ft | 294 kts | 124° |
| 2026-05-03 23:02 | 39.11467 | -78.03981 | 9238 ft | 292 kts | 124° |
| 2026-05-03 23:02 | 39.10216 | -78.01615 | 9071 ft | 292 kts | 124° |
| 2026-05-03 23:03 | 39.08966 | -77.99255 | 8850 ft | 291 kts | 124° |
| 2026-05-03 23:03 | 39.07752 | -77.96967 | 8497 ft | 293 kts | 124° |
| 2026-05-03 23:03 | 39.06547 | -77.94698 | 8155 ft | 292 kts | 124° |
| 2026-05-03 23:03 | 39.05340 | -77.92426 | 7818 ft | 291 kts | 124° |
| 2026-05-03 23:04 | 39.04155 | -77.90196 | 7497 ft | 290 kts | 124° |
| 2026-05-03 23:04 | 39.02890 | -77.87818 | 7160 ft | 286 kts | 124° |
| 2026-05-03 23:04 | 39.01662 | -77.85511 | 6860 ft | 282 kts | 124° |
| 2026-05-03 23:04 | 39.00466 | -77.83260 | 6656 ft | 276 kts | 124° |
| 2026-05-03 23:05 | 38.99256 | -77.80986 | 6470 ft | 279 kts | 124° |
| 2026-05-03 23:05 | 38.98021 | -77.78666 | 6239 ft | 278 kts | 124° |
| 2026-05-03 23:05 | 38.96867 | -77.76309 | 6035 ft | 277 kts | 111° |
| 2026-05-03 23:05 | 38.96350 | -77.73663 | 6014 ft | 278 kts | 98° |
| 2026-05-03 23:06 | 38.96048 | -77.70982 | 6016 ft | 278 kts | 96° |
| 2026-05-03 23:06 | 38.95857 | -77.69160 | 6016 ft | 277 kts | 96° |
| 2026-05-03 23:06 | 38.95467 | -77.65510 | 6013 ft | 279 kts | 99° |
| 2026-05-03 23:06 | 38.94559 | -77.62921 | 6007 ft | 277 kts | 131° |
| 2026-05-03 23:07 | 38.92926 | -77.61326 | 6006 ft | 277 kts | 154° |
| 2026-05-03 23:07 | 38.91157 | -77.60285 | 5771 ft | 273 kts | 159° |
| 2026-05-03 23:07 | 38.89285 | -77.59315 | 5414 ft | 274 kts | 160° |
| 2026-05-03 23:07 | 38.87390 | -77.58347 | 5138 ft | 271 kts | 160° |
| 2026-05-03 23:08 | 38.85423 | -77.57493 | 4767 ft | 269 kts | 174° |
| 2026-05-03 23:08 | 38.83378 | -77.57391 | 4436 ft | 266 kts | 184° |
| 2026-05-03 23:08 | 38.81394 | -77.57481 | 4184 ft | 262 kts | 185° |
| 2026-05-03 23:08 | 38.79411 | -77.57583 | 4025 ft | 255 kts | 185° |
| 2026-05-03 23:09 | 38.77535 | -77.57674 | 4006 ft | 242 kts | 185° |
| 2026-05-03 23:09 | 38.75780 | -77.57307 | 3927 ft | 236 kts | 155° |
| 2026-05-03 23:09 | 38.74527 | -77.55930 | 3645 ft | 238 kts | 121° |
| 2026-05-03 23:09 | 38.74017 | -77.53894 | 3320 ft | 237 kts | 92° |
| 2026-05-03 23:10 | 38.74018 | -77.51606 | 3105 ft | 230 kts | 73° |
| 2026-05-03 23:10 | 38.74476 | -77.50280 | 3019 ft | 219 kts | 48° |
| 2026-05-03 23:10 | 38.75964 | -77.48233 | 3020 ft | 223 kts | 41° |
| 2026-05-03 23:10 | 38.77177 | -77.46852 | 3011 ft | 217 kts | 23° |
| 2026-05-03 23:11 | 38.78704 | -77.46259 | 3021 ft | 216 kts | 4° |
| 2026-05-03 23:11 | 38.80302 | -77.46145 | 2969 ft | 201 kts | 356° |
| 2026-05-03 23:11 | 38.81746 | -77.46149 | 2695 ft | 192 kts | 356° |
| 2026-05-03 23:11 | 38.83157 | -77.46138 | 2425 ft | 184 kts | 356° |
| 2026-05-03 23:12 | 38.84475 | -77.46117 | 2183 ft | 174 kts | 356° |
| 2026-05-03 23:12 | 38.85786 | -77.46098 | 1920 ft | 161 kts | 356° |
| 2026-05-03 23:12 | 38.86916 | -77.46081 | 1706 ft | 149 kts | 355° |
| 2026-05-03 23:12 | 38.87996 | -77.46065 | 1482 ft | 136 kts | 355° |
| 2026-05-03 23:13 | 38.88972 | -77.46052 | 1302 ft | 135 kts | 355° |
| 2026-05-03 23:13 | 38.89983 | -77.46036 | 1096 ft | 135 kts | 355° |
| 2026-05-03 23:13 | 38.90995 | -77.46022 | 901 ft | 136 kts | 355° |
| 2026-05-03 23:13 | 38.92046 | -77.46000 | 686 ft | 136 kts | 355° |
| 2026-05-03 23:14 | 38.93069 | -77.45993 | 488 ft | 136 kts | 354° |
| 2026-05-03 23:14 | 38.94037 | -77.45980 | 316 ft | 134 kts | 354° |
| 2026-05-03 23:14 | 38.94859 | -77.45968 | 294 ft | 88 kts | 0° |
| 2026-05-03 23:14 | 38.95298 | -77.45960 | 290 ft | 34 kts | 2° |
| 2026-05-03 23:15 | 38.95467 | -77.45921 | 289 ft | 17 kts | 18° |
| 2026-05-03 23:15 | 38.95543 | -77.45867 | 288 ft | 10 kts | 32° |
| 2026-05-03 23:15 | 38.95611 | -77.45811 | 289 ft | 9 kts | 32° |
| 2026-05-03 23:15 | 38.95647 | -77.45760 | 289 ft | 7 kts | 89° |
| 2026-05-03 23:16 | 38.95606 | -77.45709 | 290 ft | 9 kts | 170° |
| 2026-05-03 23:16 | 38.95528 | -77.45709 | 290 ft | 11 kts | 180° |
| 2026-05-03 23:16 | 38.95443 | -77.45711 | 291 ft | 12 kts | 181° |
| 2026-05-03 23:16 | 38.95351 | -77.45713 | 292 ft | 13 kts | 181° |
| 2026-05-03 23:17 | 38.95248 | -77.45717 | 293 ft | 13 kts | 180° |
| 2026-05-03 23:17 | 38.95143 | -77.45718 | 294 ft | 14 kts | 181° |
| 2026-05-03 23:17 | 38.95034 | -77.45720 | 294 ft | 14 kts | 180° |
| 2026-05-03 23:17 | 38.94920 | -77.45721 | 295 ft | 15 kts | 180° |
| 2026-05-03 23:18 | 38.94824 | -77.45721 | 296 ft | 11 kts | 179° |
| 2026-05-03 23:18 | 38.94767 | -77.45721 | 297 ft | 2 kts | 179° |
| 2026-05-03 23:18 | 38.94760 | -77.45721 | 297 ft | 2 kts | 179° |
| 2026-05-03 23:18 | 38.94723 | -77.45721 | 297 ft | 7 kts | 179° |
| 2026-05-03 23:19 | 38.94656 | -77.45721 | 297 ft | 9 kts | 180° |
| 2026-05-03 23:19 | 38.94575 | -77.45723 | 298 ft | 11 kts | 181° |
| 2026-05-03 23:19 | 38.94507 | -77.45725 | 298 ft | 7 kts | 180° |
| 2026-05-03 23:19 | 38.94455 | -77.45724 | 298 ft | 6 kts | 168° |
| 2026-05-03 23:20 | 38.94425 | -77.45667 | 299 ft | 8 kts | 98° |
| 2026-05-03 23:20 | 38.94435 | -77.45610 | 299 ft | 4 kts | 58° |
| 2026-05-03 23:20 | 38.94447 | -77.45588 | 300 ft | 2 kts | 54° |
| 2026-05-03 23:20 | 38.94466 | -77.45555 | 300 ft | 4 kts | 53° |
| 2026-05-03 23:21 | 38.94486 | -77.45522 | 300 ft | 3 kts | 52° |
| 2026-05-03 23:21 | 38.94498 | -77.45502 | 300 ft | 2 kts | 52° |
| 2026-05-03 23:21 | 38.94510 | -77.45483 | 300 ft | 2 kts | 51° |
| 2026-05-03 23:21 | 38.94514 | -77.45476 | 300 ft | 0 kts | 51° |
| 2026-05-03 23:22 | 38.94516 | -77.45473 | 300 ft | 0 kts | 51° |